Time;durP1;ratioP1;P1;durP2;ratioP2;P2;SDS_P1;SDS_P2;PMS_P1;PMS_P2;Temp;Humidity;BMP_temperature;BMP_pressure;BME280_temperature;BME280_humidity;BME280_pressure;Samples;Min_cycle;Max_cycle;Signal;HPM_P1;HPM_P2
2023/10/06 00:00:26;;;;;;;12.82;2.42;;;;;;;;;;5094541;28;20058;-36
2023/10/06 00:02:54;;;;;;;25.10;3.17;;;;;;;;;;5094232;28;20082;-36
2023/10/06 00:05:23;;;;;;;17.02;3.08;;;;;;;;;;5088557;28;20096;-39
2023/10/06 00:07:50;;;;;;;27.33;3.58;;;;;;;;;;5093996;28;20036;-37
2023/10/06 00:10:22;;;;;;;30.95;4.50;;;;;;;;;;5093533;28;20111;-38
2023/10/06 00:12:54;;;;;;;31.83;4.03;;;;;;;;;;5090931;28;20111;-36
2023/10/06 00:15:26;;;;;;;27.08;4.63;;;;;;;;;;5094115;28;20040;-38
2023/10/06 00:18:00;;;;;;;34.63;5.38;;;;;;;;;;5094029;28;20058;-37
2023/10/06 00:20:38;;;;;;;48.60;6.20;;;;;;;;;;5092113;28;20057;-39
2023/10/06 00:23:15;;;;;;;32.30;7.07;;;;;;;;;;5092873;28;20131;-35
2023/10/06 00:25:45;;;;;;;46.72;8.82;;;;;;;;;;5090236;28;20098;-37
2023/10/06 00:28:25;;;;;;;47.55;9.75;;;;;;;;;;5092161;28;20115;-38
2023/10/06 00:30:57;;;;;;;51.45;11.93;;;;;;;;;;5089268;28;20032;-38
2023/10/06 00:33:32;;;;;;;44.65;11.40;;;;;;;;;;5090053;28;20040;-38
2023/10/06 00:36:13;;;;;;;50.25;13.18;;;;;;;;;;5080400;28;20032;-38
2023/10/06 00:38:50;;;;;;;48.50;14.15;;;;;;;;;;5080641;28;20372;-38
2023/10/06 00:41:19;;;;;;;63.47;15.80;;;;;;;;;;5076645;28;20032;-38
2023/10/06 00:43:46;;;;;;;61.33;13.98;;;;;;;;;;5088041;28;20482;-38
2023/10/06 00:46:14;;;;;;;75.68;20.17;;;;;;;;;;5089367;28;20039;-38
2023/10/06 00:48:45;;;;;;;75.95;20.08;;;;;;;;;;5088272;28;20028;-38
2023/10/06 00:51:19;;;;;;;85.28;20.77;;;;;;;;;;5093224;28;20446;-38
2023/10/06 00:53:46;;;;;;;85.07;20.08;;;;;;;;;;5093253;28;20032;-38
2023/10/06 00:56:17;;;;;;;61.17;18.05;;;;;;;;;;5093379;28;20040;-38
2023/10/06 00:58:44;;;;;;;59.05;16.13;;;;;;;;;;5093404;28;20453;-38
2023/10/06 01:01:13;;;;;;;48.90;16.60;;;;;;;;;;5093096;28;20016;-38
2023/10/06 01:03:44;;;;;;;53.33;16.02;;;;;;;;;;5093085;28;20048;-38
2023/10/06 01:06:16;;;;;;;62.80;16.25;;;;;;;;;;5093044;28;20032;-38
2023/10/06 01:08:53;;;;;;;62.65;16.55;;;;;;;;;;5085422;28;20389;-38
2023/10/06 01:11:26;;;;;;;57.85;16.27;;;;;;;;;;5086834;28;20035;-38
2023/10/06 01:13:58;;;;;;;54.65;15.43;;;;;;;;;;5082026;28;20055;-38
2023/10/06 01:16:35;;;;;;;54.17;15.87;;;;;;;;;;5082891;28;20123;-38
2023/10/06 01:19:16;;;;;;;52.50;15.27;;;;;;;;;;5078444;28;20027;-38
2023/10/06 01:21:47;;;;;;;46.72;14.07;;;;;;;;;;5086232;28;20036;-39
2023/10/06 01:24:25;;;;;;;46.00;14.80;;;;;;;;;;5090702;28;20020;-36
2023/10/06 01:27:00;;;;;;;53.95;14.85;;;;;;;;;;5074351;28;20032;-37
2023/10/06 01:29:31;;;;;;;45.22;13.02;;;;;;;;;;5082990;28;20042;-37
2023/10/06 01:32:03;;;;;;;39.20;12.65;;;;;;;;;;5087981;28;20498;-37
2023/10/06 01:34:37;;;;;;;56.88;12.05;;;;;;;;;;5080268;28;20048;-37
2023/10/06 01:37:04;;;;;;;41.55;11.88;;;;;;;;;;5106894;28;20035;-37
2023/10/06 01:39:35;;;;;;;41.55;11.68;;;;;;;;;;5091410;28;20036;-37
2023/10/06 01:42:18;;;;;;;35.92;11.77;;;;;;;;;;5072721;28;20038;-37
2023/10/06 01:44:45;;;;;;;40.03;12.18;;;;;;;;;;5061371;28;20443;-37
2023/10/06 01:47:12;;;;;;;36.00;11.75;;;;;;;;;;5080001;28;20029;-36
2023/10/06 01:49:43;;;;;;;32.78;11.32;;;;;;;;;;5075211;28;20094;-36
2023/10/06 01:52:13;;;;;;;41.55;12.23;;;;;;;;;;5074262;28;20040;-37
2023/10/06 01:54:44;;;;;;;48.60;12.93;;;;;;;;;;5075395;28;20113;-37
2023/10/06 01:57:11;;;;;;;35.03;11.18;;;;;;;;;;5079960;28;20062;-37
2023/10/06 01:59:39;;;;;;;38.35;11.70;;;;;;;;;;5088372;28;20043;-37
2023/10/06 02:02:12;;;;;;;35.42;10.30;;;;;;;;;;5090088;28;20524;-36
2023/10/06 02:04:44;;;;;;;36.17;11.15;;;;;;;;;;5087348;28;20062;-37
2023/10/06 02:07:12;;;;;;;42.65;11.10;;;;;;;;;;5089341;28;20047;-37
2023/10/06 02:09:39;;;;;;;36.38;11.40;;;;;;;;;;5089789;28;20035;-37
2023/10/06 02:12:06;;;;;;;38.50;10.20;;;;;;;;;;5090292;28;20038;-37
2023/10/06 02:14:33;;;;;;;29.40;10.32;;;;;;;;;;5088013;28;20554;-37
2023/10/06 02:17:08;;;;;;;31.85;10.27;;;;;;;;;;5089853;28;20024;-37
2023/10/06 02:19:37;;;;;;;33.42;10.93;;;;;;;;;;5086113;28;20063;-37
2023/10/06 02:22:06;;;;;;;32.95;10.25;;;;;;;;;;5087117;28;20074;-36
2023/10/06 02:24:33;;;;;;;32.10;10.70;;;;;;;;;;5065323;28;20390;-36
2023/10/06 02:27:01;;;;;;;28.17;9.88;;;;;;;;;;5077208;28;20640;-36
2023/10/06 02:29:28;;;;;;;33.15;10.07;;;;;;;;;;5074961;28;20028;-36
2023/10/06 02:32:08;;;;;;;29.85;9.95;;;;;;;;;;5086887;28;20516;-36
2023/10/06 02:34:35;;;;;;;31.48;10.27;;;;;;;;;;5086472;28;20089;-36
2023/10/06 02:37:08;;;;;;;30.20;9.80;;;;;;;;;;5065715;28;20071;-36
2023/10/06 02:39:38;;;;;;;31.55;9.55;;;;;;;;;;5071715;28;20074;-36
2023/10/06 02:42:09;;;;;;;37.38;10.13;;;;;;;;;;5072289;28;20078;-36
2023/10/06 02:44:40;;;;;;;27.52;9.60;;;;;;;;;;5074629;28;20032;-36
2023/10/06 02:47:11;;;;;;;27.13;8.30;;;;;;;;;;5071266;28;20060;-36
2023/10/06 02:49:40;;;;;;;30.98;9.27;;;;;;;;;;5088374;28;20063;-36
2023/10/06 02:52:20;;;;;;;37.05;10.52;;;;;;;;;;5090930;28;20040;-37
2023/10/06 02:54:58;;;;;;;32.92;9.57;;;;;;;;;;5090794;28;20039;-38
2023/10/06 02:57:25;;;;;;;38.45;10.07;;;;;;;;;;5088026;28;20055;-39
2023/10/06 02:59:56;;;;;;;29.63;9.27;;;;;;;;;;5080092;28;20081;-39
2023/10/06 03:02:26;;;;;;;21.77;8.45;;;;;;;;;;5089603;28;20101;-37
2023/10/06 03:05:10;;;;;;;26.25;9.75;;;;;;;;;;5090078;28;20056;-35
2023/10/06 03:07:38;;;;;;;31.40;9.13;;;;;;;;;;5090335;28;20595;-35
2023/10/06 03:10:08;;;;;;;26.02;8.38;;;;;;;;;;5090887;28;20051;-35
2023/10/06 03:12:39;;;;;;;27.20;9.00;;;;;;;;;;5090965;28;20024;-36
2023/10/06 03:15:28;;;;;;;29.95;9.00;;;;;;;;;;5090731;28;20059;-36
2023/10/06 03:17:55;;;;;;;23.55;7.90;;;;;;;;;;5086844;28;20040;-35
2023/10/06 03:20:41;;;;;;;23.80;8.15;;;;;;;;;;5090829;28;20512;-35
2023/10/06 03:23:15;;;;;;;23.33;8.52;;;;;;;;;;5088814;28;20446;-36
2023/10/06 03:25:42;;;;;;;20.80;8.02;;;;;;;;;;5087941;28;20036;-36
2023/10/06 03:28:11;;;;;;;20.33;7.35;;;;;;;;;;5090953;28;20408;-36
2023/10/06 03:30:41;;;;;;;19.30;6.97;;;;;;;;;;5092899;28;20031;-35
2023/10/06 03:33:11;;;;;;;16.65;6.80;;;;;;;;;;5095208;28;20481;-35
2023/10/06 03:35:48;;;;;;;14.52;6.10;;;;;;;;;;5095218;28;20040;-35
2023/10/06 03:43:36;;;;;;;14.88;6.90;;;;;;;;;;5095285;28;20047;-35
2023/10/06 03:46:03;;;;;;;16.00;6.72;;;;;;;;;;5095032;28;20034;-35
2023/10/06 03:48:31;;;;;;;16.35;6.82;;;;;;;;;;5095007;28;20031;-35
2023/10/06 03:50:59;;;;;;;13.13;5.68;;;;;;;;;;5095013;28;20020;-35
2023/10/06 03:53:29;;;;;;;14.73;5.75;;;;;;;;;;5094687;28;20032;-35
2023/10/06 03:55:57;;;;;;;13.98;5.40;;;;;;;;;;5095040;28;20047;-35
2023/10/06 03:58:31;;;;;;;14.20;5.53;;;;;;;;;;5094823;28;20084;-36
2023/10/06 04:01:07;;;;;;;10.40;4.95;;;;;;;;;;5094540;28;20055;-35
2023/10/06 04:03:34;;;;;;;11.65;4.88;;;;;;;;;;5094370;28;20469;-35
2023/10/06 04:06:04;;;;;;;10.45;4.25;;;;;;;;;;5094816;28;20023;-35
2023/10/06 04:08:31;;;;;;;8.18;3.80;;;;;;;;;;5094683;28;20051;-35
2023/10/06 04:10:58;;;;;;;8.10;3.75;;;;;;;;;;5094678;28;20498;-35
2023/10/06 04:13:26;;;;;;;9.50;3.55;;;;;;;;;;5094608;28;20104;-35
2023/10/06 04:15:53;;;;;;;10.65;3.72;;;;;;;;;;5094671;28;20397;-35
2023/10/06 04:18:24;;;;;;;9.13;3.33;;;;;;;;;;5094458;28;20036;-35
2023/10/06 04:20:54;;;;;;;8.82;3.30;;;;;;;;;;5094227;28;20028;-36
2023/10/06 04:23:23;;;;;;;10.02;3.03;;;;;;;;;;5094252;28;20032;-35
2023/10/06 04:25:58;;;;;;;8.18;2.80;;;;;;;;;;5094291;28;20393;-35
2023/10/06 04:28:30;;;;;;;6.72;2.67;;;;;;;;;;5094322;28;20107;-35
2023/10/06 04:31:00;;;;;;;9.10;3.08;;;;;;;;;;5094193;28;20517;-36
2023/10/06 04:33:31;;;;;;;7.82;2.20;;;;;;;;;;5093997;28;20028;-35
2023/10/06 04:36:07;;;;;;;5.78;2.65;;;;;;;;;;5094369;28;20553;-35
2023/10/06 04:38:38;;;;;;;5.53;2.28;;;;;;;;;;5094120;28;20020;-35
2023/10/06 04:41:09;;;;;;;3.85;1.95;;;;;;;;;;5094082;28;20028;-35
2023/10/06 04:43:37;;;;;;;8.23;2.58;;;;;;;;;;5093617;28;20032;-35
2023/10/06 04:46:05;;;;;;;5.20;2.45;;;;;;;;;;5094032;28;20028;-35
2023/10/06 04:48:38;;;;;;;6.35;2.83;;;;;;;;;;5093800;28;20384;-35
2023/10/06 04:51:05;;;;;;;6.85;2.78;;;;;;;;;;5093902;28;20064;-35
2023/10/06 04:53:36;;;;;;;8.93;2.95;;;;;;;;;;5093755;28;20028;-35
2023/10/06 04:56:03;;;;;;;6.20;2.67;;;;;;;;;;5093683;28;20063;-35
2023/10/06 04:58:31;;;;;;;7.75;2.80;;;;;;;;;;5075567;28;20032;-35
2023/10/06 05:01:02;;;;;;;6.70;2.75;;;;;;;;;;5093670;28;20035;-35
2023/10/06 05:03:42;;;;;;;11.82;2.85;;;;;;;;;;5093520;28;20051;-36
2023/10/06 05:06:10;;;;;;;8.15;2.65;;;;;;;;;;5093526;28;20038;-35
2023/10/06 05:08:39;;;;;;;5.13;2.60;;;;;;;;;;5093260;28;20036;-36
2023/10/06 05:11:11;;;;;;;5.30;2.40;;;;;;;;;;5093409;28;20038;-36
2023/10/06 05:13:38;;;;;;;9.63;2.75;;;;;;;;;;5093303;28;20036;-36
2023/10/06 05:16:05;;;;;;;4.65;2.45;;;;;;;;;;5093325;28;20458;-36
2023/10/06 05:18:33;;;;;;;4.72;2.55;;;;;;;;;;5093447;28;20103;-36
2023/10/06 05:21:01;;;;;;;9.52;2.60;;;;;;;;;;5093210;28;20062;-36
2023/10/06 05:23:28;;;;;;;6.13;2.33;;;;;;;;;;5093224;28;20122;-36
2023/10/06 05:26:02;;;;;;;5.25;2.40;;;;;;;;;;5093317;28;20036;-36
2023/10/06 05:28:31;;;;;;;7.43;2.42;;;;;;;;;;5093138;28;20543;-36
2023/10/06 05:30:58;;;;;;;7.82;3.28;;;;;;;;;;5092955;28;20036;-36
2023/10/06 05:33:25;;;;;;;5.57;2.55;;;;;;;;;;5074892;28;20032;-36
2023/10/06 05:35:52;;;;;;;4.95;2.17;;;;;;;;;;5092978;28;20049;-36
2023/10/06 05:38:19;;;;;;;5.00;2.78;;;;;;;;;;5093009;28;20064;-36
2023/10/06 05:40:48;;;;;;;5.18;2.35;;;;;;;;;;5092971;28;20683;-36
2023/10/06 05:43:18;;;;;;;8.07;2.50;;;;;;;;;;5092946;28;20541;-36
2023/10/06 05:45:51;;;;;;;6.72;2.25;;;;;;;;;;5093032;28;20419;-36
2023/10/06 05:48:22;;;;;;;7.13;2.38;;;;;;;;;;5092752;28;20024;-36
2023/10/06 05:50:49;;;;;;;3.78;2.13;;;;;;;;;;5092717;28;20036;-36
2023/10/06 05:53:22;;;;;;;6.03;2.33;;;;;;;;;;5092028;28;20039;-35
2023/10/06 05:55:52;;;;;;;5.70;2.08;;;;;;;;;;5092484;28;20439;-35
2023/10/06 05:58:23;;;;;;;5.45;2.13;;;;;;;;;;5092820;28;20478;-35
2023/10/06 06:01:00;;;;;;;5.00;1.80;;;;;;;;;;5091116;28;20135;-35
2023/10/06 06:03:27;;;;;;;3.85;2.10;;;;;;;;;;5092243;28;20128;-36
2023/10/06 06:06:02;;;;;;;2.67;1.83;;;;;;;;;;5092465;28;20016;-36
2023/10/06 06:08:30;;;;;;;3.97;1.63;;;;;;;;;;5092383;28;20051;-36
2023/10/06 06:10:57;;;;;;;4.20;1.90;;;;;;;;;;5092353;28;20104;-36
2023/10/06 06:13:24;;;;;;;3.58;1.70;;;;;;;;;;5092130;28;20036;-36
2023/10/06 06:15:51;;;;;;;5.07;1.80;;;;;;;;;;5092396;28;20570;-36
2023/10/06 06:18:18;;;;;;;4.18;1.83;;;;;;;;;;5092267;28;20055;-36
2023/10/06 06:20:46;;;;;;;3.50;1.75;;;;;;;;;;5092031;28;20031;-36
2023/10/06 06:23:14;;;;;;;4.18;1.83;;;;;;;;;;5092003;28;20114;-36
2023/10/06 06:25:44;;;;;;;4.32;1.85;;;;;;;;;;5092008;28;20608;-36
2023/10/06 06:28:14;;;;;;;3.42;1.73;;;;;;;;;;5092048;28;20107;-36
2023/10/06 06:30:41;;;;;;;4.20;1.70;;;;;;;;;;5091983;28;20040;-36
2023/10/06 06:33:12;;;;;;;5.25;1.70;;;;;;;;;;5092005;28;20031;-36
2023/10/06 06:35:39;;;;;;;3.28;1.58;;;;;;;;;;5091934;28;20032;-36
2023/10/06 06:38:06;;;;;;;5.35;1.60;;;;;;;;;;5091975;28;20024;-36
2023/10/06 06:40:36;;;;;;;2.72;1.40;;;;;;;;;;5091984;28;20036;-36
2023/10/06 06:43:14;;;;;;;6.90;2.08;;;;;;;;;;5091871;28;20027;-36
2023/10/06 06:45:41;;;;;;;3.20;1.50;;;;;;;;;;5091957;28;20043;-35
2023/10/06 06:48:19;;;;;;;2.63;1.40;;;;;;;;;;5091909;28;20394;-35
2023/10/06 06:50:48;;;;;;;2.97;1.60;;;;;;;;;;5091932;28;20035;-35
2023/10/06 06:53:18;;;;;;;3.65;1.60;;;;;;;;;;5091550;28;20473;-35
2023/10/06 06:55:45;;;;;;;3.42;1.27;;;;;;;;;;5091627;28;20059;-35
2023/10/06 06:58:16;;;;;;;3.70;1.50;;;;;;;;;;5091785;28;20027;-35
2023/10/06 07:00:43;;;;;;;3.50;1.42;;;;;;;;;;5091376;28;20708;-35
2023/10/06 07:03:14;;;;;;;2.58;1.17;;;;;;;;;;5091578;28;20494;-36
2023/10/06 07:05:42;;;;;;;1.60;1.02;;;;;;;;;;5091317;28;20036;-36
2023/10/06 07:08:11;;;;;;;2.63;1.38;;;;;;;;;;5073573;28;20485;-36
2023/10/06 07:10:38;;;;;;;2.35;1.23;;;;;;;;;;5073299;28;20687;-36
2023/10/06 07:13:05;;;;;;;1.80;1.10;;;;;;;;;;5091493;28;20036;-36
2023/10/06 07:15:33;;;;;;;2.45;1.25;;;;;;;;;;5091546;28;20028;-35
2023/10/06 07:18:00;;;;;;;2.85;1.20;;;;;;;;;;5091512;28;20063;-35
2023/10/06 07:20:29;;;;;;;1.88;1.15;;;;;;;;;;5091501;28;20099;-35
2023/10/06 07:22:57;;;;;;;2.45;1.38;;;;;;;;;;5091455;28;20039;-35
2023/10/06 07:25:26;;;;;;;4.65;1.45;;;;;;;;;;5091451;28;20570;-35
2023/10/06 07:27:55;;;;;;;2.60;1.30;;;;;;;;;;5091340;28;20044;-35
2023/10/06 07:30:34;;;;;;;5.55;1.67;;;;;;;;;;5091162;28;20111;-35
2023/10/06 07:33:03;;;;;;;5.45;1.70;;;;;;;;;;5091341;28;20067;-35
2023/10/06 07:35:31;;;;;;;2.72;1.38;;;;;;;;;;5091271;28;20043;-35
2023/10/06 07:37:58;;;;;;;2.65;1.33;;;;;;;;;;5091378;28;20497;-35
2023/10/06 07:40:27;;;;;;;2.50;1.42;;;;;;;;;;5091246;28;20027;-35
2023/10/06 07:42:58;;;;;;;3.90;1.23;;;;;;;;;;5091212;28;20028;-35
2023/10/06 07:45:26;;;;;;;2.88;1.67;;;;;;;;;;5091187;28;20036;-36
2023/10/06 07:47:54;;;;;;;2.78;1.23;;;;;;;;;;5091309;28;20131;-35
2023/10/06 07:50:21;;;;;;;2.30;1.10;;;;;;;;;;5091187;28;20494;-35
2023/10/06 07:52:48;;;;;;;2.50;1.30;;;;;;;;;;5091288;28;20028;-35
2023/10/06 07:55:21;;;;;;;2.10;1.30;;;;;;;;;;5091170;28;20100;-36
2023/10/06 07:57:48;;;;;;;;;;;;;;;;;;5091548;28;20476;-36
2023/10/06 08:00:27;;;;;;;2.55;1.35;;;;;;;;;;5090941;28;19912;-36
2023/10/06 08:02:57;;;;;;;1.88;1.30;;;;;;;;;;5090808;28;20410;-36
2023/10/06 08:05:24;;;;;;;1.80;1.33;;;;;;;;;;5090994;28;20794;-36
2023/10/06 08:07:54;;;;;;;3.42;1.30;;;;;;;;;;5091132;28;20043;-36
2023/10/06 08:10:23;;;;;;;2.45;1.20;;;;;;;;;;5090891;28;20036;-36
2023/10/06 08:12:51;;;;;;;1.92;1.30;;;;;;;;;;5090924;28;20464;-36
2023/10/06 08:15:27;;;;;;;3.63;1.50;;;;;;;;;;5090991;28;20519;-36
2023/10/06 08:17:55;;;;;;;2.35;1.45;;;;;;;;;;5092822;28;20103;-36
2023/10/06 08:20:24;;;;;;;2.65;1.30;;;;;;;;;;5094381;28;20059;-36
2023/10/06 08:22:52;;;;;;;1.85;1.00;;;;;;;;;;5094195;28;20040;-35
2023/10/06 08:25:19;;;;;;;3.65;1.48;;;;;;;;;;5094538;28;20028;-35
2023/10/06 08:27:47;;;;;;;3.88;1.30;;;;;;;;;;5094521;28;20526;-35
2023/10/06 08:30:21;;;;;;;2.72;1.58;;;;;;;;;;5075965;28;20427;-35
2023/10/06 08:32:55;;;;;;;2.55;1.42;;;;;;;;;;5094408;28;20097;-35
2023/10/06 08:35:23;;;;;;;5.00;1.52;;;;;;;;;;5094226;28;20036;-35
2023/10/06 08:37:56;;;;;;;2.60;1.52;;;;;;;;;;5094323;28;20078;-35
2023/10/06 08:40:23;;;;;;;3.88;1.35;;;;;;;;;;5094206;28;20028;-35
2023/10/06 08:42:52;;;;;;;3.53;1.65;;;;;;;;;;5094195;28;20031;-35
2023/10/06 08:45:20;;;;;;;2.45;1.40;;;;;;;;;;5094112;28;20074;-35
2023/10/06 08:47:50;;;;;;;3.95;1.80;;;;;;;;;;5093964;28;20038;-35
2023/10/06 08:50:24;;;;;;;3.55;1.70;;;;;;;;;;5094013;28;20031;-36
2023/10/06 08:52:54;;;;;;;3.75;1.42;;;;;;;;;;5094025;28;20082;-35
2023/10/06 08:55:27;;;;;;;8.50;1.83;;;;;;;;;;5094013;28;20046;-35
2023/10/06 08:57:55;;;;;;;2.80;1.60;;;;;;;;;;5093768;28;20028;-35
2023/10/06 09:00:26;;;;;;;2.13;1.75;;;;;;;;;;5093687;28;20028;-35
2023/10/06 09:02:55;;;;;;;3.20;1.70;;;;;;;;;;5093460;28;20063;-35
2023/10/06 09:05:22;;;;;;;3.70;1.75;;;;;;;;;;5093636;28;20113;-35
2023/10/06 09:07:58;;;;;;;2.38;1.60;;;;;;;;;;5093719;28;20028;-35
2023/10/06 09:10:26;;;;;;;2.80;1.70;;;;;;;;;;5093569;28;20028;-35
2023/10/06 09:13:10;;;;;;;3.10;1.70;;;;;;;;;;5093585;28;20036;-35
2023/10/06 09:15:43;;;;;;;5.15;1.63;;;;;;;;;;5092975;28;20131;-36
2023/10/06 09:18:20;;;;;;;2.80;1.75;;;;;;;;;;5093022;28;20063;-35
2023/10/06 09:23:11;;;;;;;5.10;1.95;;;;;;;;;;4938352;27;4135414;-33
2023/10/06 09:25:47;;;;;;;5.07;2.03;;;;;;;;;;5076432;28;20049;-33
2023/10/06 09:28:14;;;;;;;3.70;2.10;;;;;;;;;;5053710;28;20386;-35
2023/10/06 09:30:56;;;;;;;5.50;2.20;;;;;;;;;;5068793;28;20029;-34
2023/10/06 09:33:24;;;;;;;6.07;2.40;;;;;;;;;;5074096;28;20036;-33
2023/10/06 09:36:07;;;;;;;5.78;1.92;;;;;;;;;;5075352;28;20045;-33
2023/10/06 09:38:37;;;;;;;7.05;2.80;;;;;;;;;;5078331;28;20024;-34
2023/10/06 09:41:07;;;;;;;9.10;2.72;;;;;;;;;;5081721;28;20036;-33
2023/10/06 09:43:35;;;;;;;4.78;2.22;;;;;;;;;;5076315;28;20043;-32
2023/10/06 09:46:53;;;;;;;8.43;2.70;;;;;;;;;;4909194;27;5088093;-36
2023/10/06 09:49:21;;;;;;;7.80;2.45;;;;;;;;;;5089256;28;20032;-36
2023/10/06 09:51:52;;;;;;;5.97;2.42;;;;;;;;;;5089153;28;20405;-36
2023/10/06 09:54:22;;;;;;;12.63;3.17;;;;;;;;;;5088963;28;20028;-36
2023/10/06 09:56:54;;;;;;;6.20;2.78;;;;;;;;;;5087688;28;20028;-36
2023/10/06 09:59:23;;;;;;;8.10;2.78;;;;;;;;;;5088955;28;20035;-36
2023/10/06 10:01:51;;;;;;;8.93;3.33;;;;;;;;;;5089011;28;20025;-36
2023/10/06 10:04:19;;;;;;;7.47;2.67;;;;;;;;;;5087371;28;20480;-35
2023/10/06 10:06:46;;;;;;;7.38;2.92;;;;;;;;;;5088693;28;20040;-34
2023/10/06 10:09:16;;;;;;;10.13;3.03;;;;;;;;;;5088819;28;20111;-35
2023/10/06 10:11:46;;;;;;;8.77;2.67;;;;;;;;;;5088171;28;20024;-34
2023/10/06 10:14:20;;;;;;;8.27;3.13;;;;;;;;;;5078797;28;20031;-34
2023/10/06 10:16:52;;;;;;;11.07;3.03;;;;;;;;;;5077989;28;20485;-36
2023/10/06 10:19:22;;;;;;;10.90;4.10;;;;;;;;;;5077075;28;20099;-34
2023/10/06 10:21:49;;;;;;;10.77;3.60;;;;;;;;;;5077165;28;20032;-35
2023/10/06 10:24:26;;;;;;;11.05;4.25;;;;;;;;;;5078698;28;20081;-35
2023/10/06 10:26:54;;;;;;;8.80;4.43;;;;;;;;;;5076301;28;20484;-35
2023/10/06 10:29:24;;;;;;;7.88;4.05;;;;;;;;;;5077851;28;20125;-36
2023/10/06 10:31:57;;;;;;;9.82;4.43;;;;;;;;;;5075859;28;20028;-36
2023/10/06 10:34:28;;;;;;;15.73;4.75;;;;;;;;;;5084595;28;20025;-34
2023/10/06 10:36:54;;;;;;;9.05;4.55;;;;;;;;;;5078279;28;20025;-35
2023/10/06 10:39:22;;;;;;;14.02;4.80;;;;;;;;;;5080647;28;20031;-34
2023/10/06 10:41:49;;;;;;;17.15;5.10;;;;;;;;;;5069327;28;20028;-32
2023/10/06 10:44:21;;;;;;;12.07;4.53;;;;;;;;;;5077448;28;20020;-33
2023/10/06 10:46:49;;;;;;;12.63;4.75;;;;;;;;;;5077618;28;20734;-34
2023/10/06 10:49:19;;;;;;;12.05;5.10;;;;;;;;;;5075946;28;20032;-34
2023/10/06 10:51:56;;;;;;;12.45;5.10;;;;;;;;;;5074716;28;20103;-34
2023/10/06 10:54:33;;;;;;;8.73;4.82;;;;;;;;;;5077010;28;20025;-34
2023/10/06 10:57:09;;;;;;;14.98;5.47;;;;;;;;;;5068463;28;20025;-34
2023/10/06 10:59:56;;;;;;;10.02;5.03;;;;;;;;;;5062621;28;20029;-34
2023/10/06 11:02:24;;;;;;;11.10;4.95;;;;;;;;;;5059018;28;20536;-36
2023/10/06 11:04:51;;;;;;;19.85;5.13;;;;;;;;;;5064088;28;20041;-34
2023/10/06 11:07:18;;;;;;;16.95;5.25;;;;;;;;;;5061681;28;20031;-35
2023/10/06 11:09:48;;;;;;;14.23;4.72;;;;;;;;;;5062230;28;20025;-34
2023/10/06 11:12:19;;;;;;;16.30;5.72;;;;;;;;;;5065721;28;20036;-34
2023/10/06 11:14:46;;;;;;;18.75;5.72;;;;;;;;;;5072685;28;20024;-34
2023/10/06 11:17:13;;;;;;;27.33;6.60;;;;;;;;;;5073078;28;20017;-32
2023/10/06 11:19:41;;;;;;;34.70;9.80;;;;;;;;;;5061860;28;20087;-31
2023/10/06 11:22:11;;;;;;;29.95;8.50;;;;;;;;;;5042973;28;20355;-37
2023/10/06 11:24:39;;;;;;;81.07;11.43;;;;;;;;;;5060266;28;20171;-38
2023/10/06 11:27:23;;;;;;;103.03;12.30;;;;;;;;;;5059287;28;20039;-40
2023/10/06 11:29:57;;;;;;;65.22;11.10;;;;;;;;;;5042367;28;20047;-38
2023/10/06 11:32:26;;;;;;;145.77;17.52;;;;;;;;;;5073023;28;20039;-40
2023/10/06 11:34:54;;;;;;;144.05;21.35;;;;;;;;;;5063485;28;20048;-37
2023/10/06 11:38:31;;;;;;;107.63;19.17;;;;;;;;;;4968284;27;2593344;-41
2023/10/06 11:40:59;;;;;;;81.18;16.30;;;;;;;;;;5068401;28;20385;-39
2023/10/06 11:43:26;;;;;;;107.75;17.60;;;;;;;;;;5088772;28;20485;-39
2023/10/06 11:46:02;;;;;;;88.18;17.05;;;;;;;;;;5088878;28;20036;-40
2023/10/06 11:48:31;;;;;;;88.80;15.88;;;;;;;;;;5088425;28;20039;-40
2023/10/06 11:51:01;;;;;;;97.80;14.55;;;;;;;;;;5085255;28;20037;-38
2023/10/06 11:53:28;;;;;;;72.00;13.18;;;;;;;;;;5071339;28;20025;-41
2023/10/06 11:56:06;;;;;;;84.05;11.23;;;;;;;;;;5068376;28;20449;-41
2023/10/06 11:58:35;;;;;;;28.17;6.30;;;;;;;;;;5068037;28;20036;-43
2023/10/06 12:01:04;;;;;;;54.58;7.57;;;;;;;;;;5068223;28;20397;-41
2023/10/06 12:03:43;;;;;;;38.05;5.60;;;;;;;;;;5062326;28;20091;-40
2023/10/06 12:06:13;;;;;;;27.67;5.68;;;;;;;;;;5068281;28;20029;-41
2023/10/06 12:08:44;;;;;;;25.20;4.07;;;;;;;;;;5068118;28;20170;-41
2023/10/06 12:11:15;;;;;;;32.80;3.05;;;;;;;;;;5068137;28;20791;-41
2023/10/06 12:13:42;;;;;;;109.97;8.70;;;;;;;;;;5068098;28;20095;-40
2023/10/06 12:16:15;;;;;;;96.82;6.55;;;;;;;;;;5067970;28;20478;-40
2023/10/06 12:18:44;;;;;;;67.80;4.43;;;;;;;;;;5067876;28;20025;-40
2023/10/06 12:21:15;;;;;;;38.17;3.42;;;;;;;;;;5067437;28;20036;-41
2023/10/06 12:23:42;;;;;;;25.77;3.15;;;;;;;;;;5049819;28;20478;-39
2023/10/06 12:26:09;;;;;;;86.68;6.60;;;;;;;;;;5067242;28;20458;-40
2023/10/06 12:28:42;;;;;;;76.88;7.70;;;;;;;;;;5067669;28;20028;-42
2023/10/06 12:31:08;;;;;;;;;;;;;;;;;;5067860;28;20116;-42
2023/10/06 12:33:35;;;;;;;21.45;2.88;;;;;;;;;;5067700;28;20393;-42
2023/10/06 12:36:08;;;;;;;16.17;2.63;;;;;;;;;;5067538;28;20025;-41
2023/10/06 12:38:35;;;;;;;13.45;2.80;;;;;;;;;;5067314;28;20094;-41
2023/10/06 12:41:06;;;;;;;35.30;4.68;;;;;;;;;;5067144;28;20040;-42
2023/10/06 12:43:37;;;;;;;67.45;6.30;;;;;;;;;;5067438;28;20049;-42
2023/10/06 12:46:04;;;;;;;42.47;3.78;;;;;;;;;;5067365;28;20043;-43
2023/10/06 12:48:32;;;;;;;35.58;4.00;;;;;;;;;;5059999;28;20072;-41
2023/10/06 12:50:59;;;;;;;45.22;3.90;;;;;;;;;;5054035;28;20029;-41
2023/10/06 12:53:26;;;;;;;92.88;6.63;;;;;;;;;;5053847;28;20488;-42
2023/10/06 12:55:56;;;;;;;50.28;2.55;;;;;;;;;;5053931;28;20039;-41
2023/10/06 12:58:23;;;;;;;37.13;3.05;;;;;;;;;;5053775;28;20044;-41
2023/10/06 13:00:50;;;;;;;23.50;1.80;;;;;;;;;;5053982;28;20058;-42
2023/10/06 13:03:17;;;;;;;28.75;2.60;;;;;;;;;;5053780;28;20037;-41
2023/10/06 13:05:45;;;;;;;25.92;2.72;;;;;;;;;;5053850;28;20116;-41
2023/10/06 13:08:21;;;;;;;32.72;3.38;;;;;;;;;;5053530;28;20029;-43
2023/10/06 13:10:49;;;;;;;180.57;12.13;;;;;;;;;;5053679;28;20040;-42
2023/10/06 13:23:45;;;;;;;38.45;2.08;;;;;;;;;;4928250;27;4039556;-44
2023/10/06 13:26:13;;;;;;;21.20;1.92;;;;;;;;;;5068959;28;20049;-44
2023/10/06 13:28:42;;;;;;;18.13;2.38;;;;;;;;;;5068552;28;20478;-44
2023/10/06 13:31:10;;;;;;;34.67;1.90;;;;;;;;;;5068516;28;20398;-44
2023/10/06 13:33:37;;;;;;;19.23;2.50;;;;;;;;;;5068263;28;20029;-44
2023/10/06 13:36:05;;;;;;;28.67;2.30;;;;;;;;;;5068540;28;20039;-43
2023/10/06 13:38:34;;;;;;;28.40;2.08;;;;;;;;;;5068558;28;20017;-44
2023/10/06 13:41:04;;;;;;;20.75;1.90;;;;;;;;;;5067934;28;20108;-44
2023/10/06 13:43:31;;;;;;;23.67;2.72;;;;;;;;;;5068337;28;20047;-41
2023/10/06 13:45:59;;;;;;;18.17;2.08;;;;;;;;;;5068279;28;20490;-42
2023/10/06 13:48:28;;;;;;;26.42;2.40;;;;;;;;;;5068098;28;20032;-41
2023/10/06 13:50:58;;;;;;;17.58;1.80;;;;;;;;;;5058877;28;20055;-42
2023/10/06 13:53:28;;;;;;;15.38;1.92;;;;;;;;;;5055923;28;20095;-41
2023/10/06 13:55:55;;;;;;;14.02;1.90;;;;;;;;;;5056417;28;20033;-44
2023/10/06 13:58:26;;;;;;;23.23;2.22;;;;;;;;;;5057640;28;20032;-41
2023/10/06 14:00:56;;;;;;;20.33;2.00;;;;;;;;;;5065423;28;20036;-41
2023/10/06 14:03:23;;;;;;;21.23;2.10;;;;;;;;;;5066926;28;20041;-43
2023/10/06 14:05:55;;;;;;;15.15;1.58;;;;;;;;;;5067277;28;20017;-42
2023/10/06 14:08:24;;;;;;;34.75;2.88;;;;;;;;;;5067150;28;20095;-44
2023/10/06 14:10:51;;;;;;;26.45;2.30;;;;;;;;;;5067074;28;20029;-42
2023/10/06 14:13:24;;;;;;;34.85;3.00;;;;;;;;;;5066978;28;20465;-41
2023/10/06 14:18:32;;;;;;;44.10;2.60;;;;;;;;;;5064718;28;20029;-41
2023/10/06 14:21:03;;;;;;;48.90;4.30;;;;;;;;;;5066804;28;20053;-42
2023/10/06 14:23:32;;;;;;;60.70;4.95;;;;;;;;;;5066770;28;20523;-41
2023/10/06 14:26:00;;;;;;;49.05;4.57;;;;;;;;;;5066733;28;20079;-41
2023/10/06 14:28:30;;;;;;;74.50;5.43;;;;;;;;;;5066712;28;20036;-41
2023/10/06 14:31:09;;;;;;;39.60;3.17;;;;;;;;;;5066712;28;20040;-42
2023/10/06 14:33:39;;;;;;;34.33;3.80;;;;;;;;;;5060920;28;20025;-41
2023/10/06 14:46:27;;;;;;;41.10;4.05;;;;;;;;;;5054201;28;20100;-42
2023/10/06 14:48:54;;;;;;;50.92;5.05;;;;;;;;;;5053804;28;20028;-41
2023/10/06 14:51:21;;;;;;;33.83;3.95;;;;;;;;;;5053863;28;20027;-41
2023/10/06 14:53:49;;;;;;;43.40;3.83;;;;;;;;;;5053702;28;20029;-44
2023/10/06 14:56:16;;;;;;;32.03;3.42;;;;;;;;;;5053814;28;20089;-41
2023/10/06 14:58:46;;;;;;;27.13;3.05;;;;;;;;;;5053664;28;20036;-42
2023/10/06 15:01:14;;;;;;;47.88;3.83;;;;;;;;;;5053497;28;20039;-41
2023/10/06 15:03:41;;;;;;;44.33;4.30;;;;;;;;;;5053483;28;20401;-41
2023/10/06 15:06:11;;;;;;;58.80;5.00;;;;;;;;;;5052866;28;20115;-41
2023/10/06 15:08:38;;;;;;;37.65;4.28;;;;;;;;;;5050351;28;20033;-43
2023/10/06 15:11:11;;;;;;;29.90;3.83;;;;;;;;;;5052787;28;20033;-41
2023/10/06 15:13:37;;;;;;;;;;;;;;;;;;5052994;28;20025;-41
2023/10/06 15:16:15;;;;;;;63.15;4.97;;;;;;;;;;5052840;28;19912;-41
2023/10/06 15:18:46;;;;;;;33.80;4.57;;;;;;;;;;5050316;28;20508;-40
2023/10/06 15:21:17;;;;;;;32.50;4.07;;;;;;;;;;5053083;28;20037;-41
2023/10/06 15:23:47;;;;;;;37.78;3.45;;;;;;;;;;5052984;28;20053;-42